sensor_id;sensor_type;location;lat;lon;timestamp;P1;durP1;ratioP1;P2;durP2;ratioP2
11334;SDS011;5722;42.620;23.374;2023-07-20T00:02:24;7.18;;;2.78;;
11334;SDS011;5722;42.620;23.374;2023-07-20T00:04:53;6.85;;;3.10;;
11334;SDS011;5722;42.620;23.374;2023-07-20T00:07:21;7.68;;;3.30;;
11334;SDS011;5722;42.620;23.374;2023-07-20T00:09:52;13.75;;;3.25;;
11334;SDS011;5722;42.620;23.374;2023-07-20T00:12:33;7.38;;;3.20;;
11334;SDS011;5722;42.620;23.374;2023-07-20T00:15:03;8.20;;;3.78;;
11334;SDS011;5722;42.620;23.374;2023-07-20T00:17:37;4.90;;;3.47;;
11334;SDS011;5722;42.620;23.374;2023-07-20T00:20:06;10.15;;;3.70;;
11334;SDS011;5722;42.620;23.374;2023-07-20T00:22:36;5.43;;;3.40;;
11334;SDS011;5722;42.620;23.374;2023-07-20T00:25:05;9.63;;;3.55;;
11334;SDS011;5722;42.620;23.374;2023-07-20T00:27:48;8.48;;;3.22;;
11334;SDS011;5722;42.620;23.374;2023-07-20T00:30:24;11.20;;;3.83;;
11334;SDS011;5722;42.620;23.374;2023-07-20T00:32:54;7.85;;;3.22;;
11334;SDS011;5722;42.620;23.374;2023-07-20T00:35:29;8.88;;;3.28;;
11334;SDS011;5722;42.620;23.374;2023-07-20T00:37:57;8.00;;;3.30;;
11334;SDS011;5722;42.620;23.374;2023-07-20T00:40:34;7.90;;;3.17;;
11334;SDS011;5722;42.620;23.374;2023-07-20T00:43:04;7.60;;;3.20;;
11334;SDS011;5722;42.620;23.374;2023-07-20T00:45:38;8.68;;;3.30;;
11334;SDS011;5722;42.620;23.374;2023-07-20T00:48:05;8.38;;;3.58;;
11334;SDS011;5722;42.620;23.374;2023-07-20T00:50:47;7.07;;;3.50;;
11334;SDS011;5722;42.620;23.374;2023-07-20T00:56:04;6.13;;;3.60;;
11334;SDS011;5722;42.620;23.374;2023-07-20T00:58:36;6.25;;;3.65;;
11334;SDS011;5722;42.620;23.374;2023-07-20T01:01:11;6.18;;;3.30;;
11334;SDS011;5722;42.620;23.374;2023-07-20T01:06:18;8.02;;;3.28;;
11334;SDS011;5722;42.620;23.374;2023-07-20T01:08:56;7.50;;;3.50;;
11334;SDS011;5722;42.620;23.374;2023-07-20T01:11:32;9.38;;;3.15;;
11334;SDS011;5722;42.620;23.374;2023-07-20T01:14:04;8.13;;;3.00;;
11334;SDS011;5722;42.620;23.374;2023-07-20T01:16:35;7.75;;;3.00;;
11334;SDS011;5722;42.620;23.374;2023-07-20T01:19:05;8.93;;;2.92;;
11334;SDS011;5722;42.620;23.374;2023-07-20T01:21:50;12.13;;;3.40;;
11334;SDS011;5722;42.620;23.374;2023-07-20T01:30:16;8.55;;;2.83;;
11334;SDS011;5722;42.620;23.374;2023-07-20T01:32:55;6.18;;;3.03;;
11334;SDS011;5722;42.620;23.374;2023-07-20T01:35:23;5.38;;;2.65;;
11334;SDS011;5722;42.620;23.374;2023-07-20T01:38:04;7.72;;;3.50;;
11334;SDS011;5722;42.620;23.374;2023-07-20T01:40:44;5.60;;;3.22;;
11334;SDS011;5722;42.620;23.374;2023-07-20T01:43:12;3.35;;;2.65;;
11334;SDS011;5722;42.620;23.374;2023-07-20T01:45:41;6.60;;;3.08;;
11334;SDS011;5722;42.620;23.374;2023-07-20T01:48:19;10.20;;;2.97;;
11334;SDS011;5722;42.620;23.374;2023-07-20T01:50:48;7.38;;;3.05;;
11334;SDS011;5722;42.620;23.374;2023-07-20T01:53:16;5.97;;;2.90;;
11334;SDS011;5722;42.620;23.374;2023-07-20T01:55:45;6.20;;;3.70;;
11334;SDS011;5722;42.620;23.374;2023-07-20T01:58:20;7.00;;;3.10;;
11334;SDS011;5722;42.620;23.374;2023-07-20T02:00:47;6.22;;;3.20;;
11334;SDS011;5722;42.620;23.374;2023-07-20T02:03:16;5.47;;;3.17;;
11334;SDS011;5722;42.620;23.374;2023-07-20T02:05:45;6.18;;;3.17;;
11334;SDS011;5722;42.620;23.374;2023-07-20T02:08:14;6.32;;;3.53;;
11334;SDS011;5722;42.620;23.374;2023-07-20T02:10:49;6.80;;;3.20;;
11334;SDS011;5722;42.620;23.374;2023-07-20T02:13:33;6.10;;;3.13;;
11334;SDS011;5722;42.620;23.374;2023-07-20T02:16:02;7.28;;;3.58;;
11334;SDS011;5722;42.620;23.374;2023-07-20T02:24:08;8.15;;;3.53;;
11334;SDS011;5722;42.620;23.374;2023-07-20T02:26:35;9.18;;;3.88;;
11334;SDS011;5722;42.620;23.374;2023-07-20T02:29:03;10.07;;;3.83;;
11334;SDS011;5722;42.620;23.374;2023-07-20T02:31:32;7.13;;;3.90;;
11334;SDS011;5722;42.620;23.374;2023-07-20T02:34:04;9.05;;;4.20;;
11334;SDS011;5722;42.620;23.374;2023-07-20T02:36:37;8.55;;;4.15;;
11334;SDS011;5722;42.620;23.374;2023-07-20T02:39:09;9.02;;;3.72;;
11334;SDS011;5722;42.620;23.374;2023-07-20T02:41:38;6.55;;;3.95;;
11334;SDS011;5722;42.620;23.374;2023-07-20T02:44:08;9.55;;;4.10;;
11334;SDS011;5722;42.620;23.374;2023-07-20T02:46:35;5.30;;;3.78;;
11334;SDS011;5722;42.620;23.374;2023-07-20T02:49:03;5.95;;;4.20;;
11334;SDS011;5722;42.620;23.374;2023-07-20T02:51:29;9.23;;;4.18;;
11334;SDS011;5722;42.620;23.374;2023-07-20T02:54:00;6.00;;;3.83;;
11334;SDS011;5722;42.620;23.374;2023-07-20T02:59:19;9.43;;;4.60;;
11334;SDS011;5722;42.620;23.374;2023-07-20T03:01:47;6.00;;;4.35;;
11334;SDS011;5722;42.620;23.374;2023-07-20T03:04:26;6.00;;;4.18;;
11334;SDS011;5722;42.620;23.374;2023-07-20T03:07:11;6.85;;;4.43;;
11334;SDS011;5722;42.620;23.374;2023-07-20T03:09:38;7.68;;;4.05;;
11334;SDS011;5722;42.620;23.374;2023-07-20T03:12:09;7.88;;;4.00;;
11334;SDS011;5722;42.620;23.374;2023-07-20T03:14:49;11.65;;;4.38;;
11334;SDS011;5722;42.620;23.374;2023-07-20T03:17:17;9.20;;;4.55;;
11334;SDS011;5722;42.620;23.374;2023-07-20T03:20:03;5.82;;;3.95;;
11334;SDS011;5722;42.620;23.374;2023-07-20T03:22:35;10.10;;;4.50;;
11334;SDS011;5722;42.620;23.374;2023-07-20T03:25:07;8.75;;;4.20;;
11334;SDS011;5722;42.620;23.374;2023-07-20T03:27:37;8.65;;;4.25;;
11334;SDS011;5722;42.620;23.374;2023-07-20T03:32:58;10.70;;;4.20;;
11334;SDS011;5722;42.620;23.374;2023-07-20T03:35:25;9.02;;;4.38;;
11334;SDS011;5722;42.620;23.374;2023-07-20T03:37:53;10.32;;;4.25;;
11334;SDS011;5722;42.620;23.374;2023-07-20T03:40:34;7.40;;;3.95;;
11334;SDS011;5722;42.620;23.374;2023-07-20T03:43:06;6.20;;;4.07;;
11334;SDS011;5722;42.620;23.374;2023-07-20T03:45:36;7.68;;;4.10;;
11334;SDS011;5722;42.620;23.374;2023-07-20T03:48:08;6.90;;;4.22;;
11334;SDS011;5722;42.620;23.374;2023-07-20T03:50:38;8.80;;;3.97;;
11334;SDS011;5722;42.620;23.374;2023-07-20T03:53:06;7.22;;;4.35;;
11334;SDS011;5722;42.620;23.374;2023-07-20T03:55:33;12.88;;;4.35;;
11334;SDS011;5722;42.620;23.374;2023-07-20T03:58:01;8.48;;;4.00;;
11334;SDS011;5722;42.620;23.374;2023-07-20T04:00:31;9.98;;;3.95;;
11334;SDS011;5722;42.620;23.374;2023-07-20T04:03:08;9.60;;;4.40;;
11334;SDS011;5722;42.620;23.374;2023-07-20T04:05:55;8.55;;;3.72;;
11334;SDS011;5722;42.620;23.374;2023-07-20T04:08:23;8.05;;;3.90;;
11334;SDS011;5722;42.620;23.374;2023-07-20T04:10:54;8.43;;;3.58;;
11334;SDS011;5722;42.620;23.374;2023-07-20T04:13:24;10.75;;;4.28;;
11334;SDS011;5722;42.620;23.374;2023-07-20T04:16:01;13.75;;;4.43;;
11334;SDS011;5722;42.620;23.374;2023-07-20T04:18:33;9.77;;;4.05;;
11334;SDS011;5722;42.620;23.374;2023-07-20T04:21:19;7.95;;;3.83;;
11334;SDS011;5722;42.620;23.374;2023-07-20T04:23:48;8.23;;;3.75;;
11334;SDS011;5722;42.620;23.374;2023-07-20T04:26:20;13.15;;;3.92;;
11334;SDS011;5722;42.620;23.374;2023-07-20T04:28:54;8.98;;;4.05;;
11334;SDS011;5722;42.620;23.374;2023-07-20T04:31:31;8.65;;;3.97;;
11334;SDS011;5722;42.620;23.374;2023-07-20T04:34:05;9.43;;;4.10;;
11334;SDS011;5722;42.620;23.374;2023-07-20T04:36:46;7.60;;;4.57;;
11334;SDS011;5722;42.620;23.374;2023-07-20T04:39:26;11.93;;;5.05;;
11334;SDS011;5722;42.620;23.374;2023-07-20T04:42:14;10.15;;;4.72;;
11334;SDS011;5722;42.620;23.374;2023-07-20T04:44:44;12.80;;;4.93;;
11334;SDS011;5722;42.620;23.374;2023-07-20T04:47:20;11.80;;;4.68;;
11334;SDS011;5722;42.620;23.374;2023-07-20T04:49:57;9.48;;;4.32;;
11334;SDS011;5722;42.620;23.374;2023-07-20T04:52:42;9.82;;;4.50;;
11334;SDS011;5722;42.620;23.374;2023-07-20T04:55:17;8.93;;;4.43;;
11334;SDS011;5722;42.620;23.374;2023-07-20T04:57:49;7.35;;;4.57;;
11334;SDS011;5722;42.620;23.374;2023-07-20T05:00:21;14.05;;;4.57;;
11334;SDS011;5722;42.620;23.374;2023-07-20T05:03:01;10.45;;;4.40;;
11334;SDS011;5722;42.620;23.374;2023-07-20T05:05:32;7.60;;;4.20;;
11334;SDS011;5722;42.620;23.374;2023-07-20T05:08:21;7.18;;;4.30;;
11334;SDS011;5722;42.620;23.374;2023-07-20T05:10:57;8.60;;;4.18;;
11334;SDS011;5722;42.620;23.374;2023-07-20T05:13:30;9.88;;;4.22;;
11334;SDS011;5722;42.620;23.374;2023-07-20T05:16:10;10.77;;;4.15;;
11334;SDS011;5722;42.620;23.374;2023-07-20T05:18:38;8.70;;;4.53;;
11334;SDS011;5722;42.620;23.374;2023-07-20T05:21:09;11.30;;;4.43;;
11334;SDS011;5722;42.620;23.374;2023-07-20T05:23:42;11.82;;;4.50;;
11334;SDS011;5722;42.620;23.374;2023-07-20T05:26:17;8.25;;;4.40;;
11334;SDS011;5722;42.620;23.374;2023-07-20T05:28:44;11.80;;;4.22;;
11334;SDS011;5722;42.620;23.374;2023-07-20T05:31:30;5.03;;;3.95;;
11334;SDS011;5722;42.620;23.374;2023-07-20T05:34:11;8.27;;;4.07;;
11334;SDS011;5722;42.620;23.374;2023-07-20T05:37:02;14.55;;;4.50;;
11334;SDS011;5722;42.620;23.374;2023-07-20T05:39:38;10.80;;;4.20;;
11334;SDS011;5722;42.620;23.374;2023-07-20T05:42:16;8.63;;;3.90;;
11334;SDS011;5722;42.620;23.374;2023-07-20T05:47:46;9.05;;;3.92;;
11334;SDS011;5722;42.620;23.374;2023-07-20T05:50:25;10.63;;;4.38;;
11334;SDS011;5722;42.620;23.374;2023-07-20T05:52:54;8.70;;;4.32;;
11334;SDS011;5722;42.620;23.374;2023-07-20T05:55:41;9.98;;;4.85;;
11334;SDS011;5722;42.620;23.374;2023-07-20T05:58:16;8.45;;;4.07;;
11334;SDS011;5722;42.620;23.374;2023-07-20T06:00:57;9.65;;;4.95;;
11334;SDS011;5722;42.620;23.374;2023-07-20T06:03:32;11.07;;;4.50;;
11334;SDS011;5722;42.620;23.374;2023-07-20T06:06:04;11.35;;;4.20;;
11334;SDS011;5722;42.620;23.374;2023-07-20T06:08:39;8.55;;;4.30;;
11334;SDS011;5722;42.620;23.374;2023-07-20T06:16:46;11.15;;;4.82;;
11334;SDS011;5722;42.620;23.374;2023-07-20T06:19:27;8.40;;;4.32;;
11334;SDS011;5722;42.620;23.374;2023-07-20T06:22:02;15.30;;;4.60;;
11334;SDS011;5722;42.620;23.374;2023-07-20T06:24:34;11.70;;;5.10;;
11334;SDS011;5722;42.620;23.374;2023-07-20T06:27:07;10.05;;;4.57;;
11334;SDS011;5722;42.620;23.374;2023-07-20T06:29:38;10.50;;;4.60;;
11334;SDS011;5722;42.620;23.374;2023-07-20T06:35:01;11.02;;;4.82;;
11334;SDS011;5722;42.620;23.374;2023-07-20T06:37:31;11.57;;;4.43;;
11334;SDS011;5722;42.620;23.374;2023-07-20T06:42:50;12.48;;;4.50;;
11334;SDS011;5722;42.620;23.374;2023-07-20T06:48:07;9.20;;;4.45;;
11334;SDS011;5722;42.620;23.374;2023-07-20T06:59:00;9.38;;;4.45;;
11334;SDS011;5722;42.620;23.374;2023-07-20T07:01:30;12.57;;;3.90;;
11334;SDS011;5722;42.620;23.374;2023-07-20T07:04:00;7.53;;;3.72;;
11334;SDS011;5722;42.620;23.374;2023-07-20T07:06:30;8.07;;;4.38;;
11334;SDS011;5722;42.620;23.374;2023-07-20T07:08:59;9.85;;;3.78;;
11334;SDS011;5722;42.620;23.374;2023-07-20T07:11:33;8.50;;;3.83;;
11334;SDS011;5722;42.620;23.374;2023-07-20T07:14:10;5.93;;;3.88;;
11334;SDS011;5722;42.620;23.374;2023-07-20T07:16:40;14.82;;;4.40;;
11334;SDS011;5722;42.620;23.374;2023-07-20T07:19:08;8.27;;;4.15;;
11334;SDS011;5722;42.620;23.374;2023-07-20T07:21:45;13.43;;;4.63;;
11334;SDS011;5722;42.620;23.374;2023-07-20T07:24:17;11.60;;;4.35;;
11334;SDS011;5722;42.620;23.374;2023-07-20T07:26:48;6.50;;;3.65;;
11334;SDS011;5722;42.620;23.374;2023-07-20T07:32:08;15.77;;;4.28;;
11334;SDS011;5722;42.620;23.374;2023-07-20T07:34:40;14.43;;;4.50;;
11334;SDS011;5722;42.620;23.374;2023-07-20T07:37:10;11.43;;;4.55;;
11334;SDS011;5722;42.620;23.374;2023-07-20T07:39:40;11.48;;;4.03;;
11334;SDS011;5722;42.620;23.374;2023-07-20T07:42:20;12.98;;;4.47;;
11334;SDS011;5722;42.620;23.374;2023-07-20T07:44:50;10.57;;;4.38;;
11334;SDS011;5722;42.620;23.374;2023-07-20T07:47:33;14.68;;;4.60;;
11334;SDS011;5722;42.620;23.374;2023-07-20T07:50:06;10.15;;;3.90;;
11334;SDS011;5722;42.620;23.374;2023-07-20T07:52:48;10.27;;;4.45;;
11334;SDS011;5722;42.620;23.374;2023-07-20T07:55:21;12.90;;;4.72;;
11334;SDS011;5722;42.620;23.374;2023-07-20T07:57:58;9.93;;;4.20;;
11334;SDS011;5722;42.620;23.374;2023-07-20T08:00:29;20.17;;;4.88;;
11334;SDS011;5722;42.620;23.374;2023-07-20T08:08:44;14.57;;;4.72;;
11334;SDS011;5722;42.620;23.374;2023-07-20T08:11:11;10.35;;;5.15;;
11334;SDS011;5722;42.620;23.374;2023-07-20T08:13:38;12.40;;;5.30;;
11334;SDS011;5722;42.620;23.374;2023-07-20T08:16:13;20.73;;;5.35;;
11334;SDS011;5722;42.620;23.374;2023-07-20T08:18:45;15.88;;;5.63;;
11334;SDS011;5722;42.620;23.374;2023-07-20T08:21:12;18.17;;;5.70;;
11334;SDS011;5722;42.620;23.374;2023-07-20T08:23:54;16.67;;;5.40;;
11334;SDS011;5722;42.620;23.374;2023-07-20T08:26:29;15.20;;;5.50;;
11334;SDS011;5722;42.620;23.374;2023-07-20T08:29:07;13.85;;;4.53;;
11334;SDS011;5722;42.620;23.374;2023-07-20T08:31:38;9.55;;;5.15;;
11334;SDS011;5722;42.620;23.374;2023-07-20T08:34:15;11.18;;;4.75;;
11334;SDS011;5722;42.620;23.374;2023-07-20T08:36:53;11.45;;;4.50;;
11334;SDS011;5722;42.620;23.374;2023-07-20T08:45:10;13.88;;;3.58;;
11334;SDS011;5722;42.620;23.374;2023-07-20T08:47:49;10.52;;;3.63;;
11334;SDS011;5722;42.620;23.374;2023-07-20T08:50:34;12.57;;;3.40;;
11334;SDS011;5722;42.620;23.374;2023-07-20T08:53:09;9.32;;;3.30;;
11334;SDS011;5722;42.620;23.374;2023-07-20T08:55:41;13.88;;;3.35;;
11334;SDS011;5722;42.620;23.374;2023-07-20T08:58:11;10.75;;;3.25;;
11334;SDS011;5722;42.620;23.374;2023-07-20T09:01:04;8.57;;;3.10;;
11334;SDS011;5722;42.620;23.374;2023-07-20T09:03:31;16.42;;;3.00;;
11334;SDS011;5722;42.620;23.374;2023-07-20T09:06:10;10.65;;;3.00;;
11334;SDS011;5722;42.620;23.374;2023-07-20T09:08:58;8.40;;;2.88;;
11334;SDS011;5722;42.620;23.374;2023-07-20T09:11:30;9.00;;;3.28;;
11334;SDS011;5722;42.620;23.374;2023-07-20T09:14:16;7.63;;;3.20;;
11334;SDS011;5722;42.620;23.374;2023-07-20T09:22:37;12.50;;;3.00;;
11334;SDS011;5722;42.620;23.374;2023-07-20T09:25:19;11.77;;;3.08;;
11334;SDS011;5722;42.620;23.374;2023-07-20T09:27:55;6.55;;;3.38;;
11334;SDS011;5722;42.620;23.374;2023-07-20T09:30:30;10.18;;;3.42;;
11334;SDS011;5722;42.620;23.374;2023-07-20T09:33:03;11.13;;;3.00;;
11334;SDS011;5722;42.620;23.374;2023-07-20T09:35:34;9.48;;;3.15;;
11334;SDS011;5722;42.620;23.374;2023-07-20T09:38:15;10.52;;;3.10;;
11334;SDS011;5722;42.620;23.374;2023-07-20T09:40:50;10.98;;;3.30;;
11334;SDS011;5722;42.620;23.374;2023-07-20T09:43:26;9.88;;;2.90;;
11334;SDS011;5722;42.620;23.374;2023-07-20T09:49:00;6.40;;;2.88;;
11334;SDS011;5722;42.620;23.374;2023-07-20T09:51:40;10.48;;;3.15;;
11334;SDS011;5722;42.620;23.374;2023-07-20T10:00:06;8.35;;;3.08;;
11334;SDS011;5722;42.620;23.374;2023-07-20T10:02:49;15.50;;;3.38;;
11334;SDS011;5722;42.620;23.374;2023-07-20T10:05:25;7.25;;;2.63;;
11334;SDS011;5722;42.620;23.374;2023-07-20T10:08:04;10.48;;;2.92;;
11334;SDS011;5722;42.620;23.374;2023-07-20T10:10:41;7.57;;;3.30;;
11334;SDS011;5722;42.620;23.374;2023-07-20T10:13:43;11.82;;;3.25;;
11334;SDS011;5722;42.620;23.374;2023-07-20T10:19:11;8.20;;;2.88;;
11334;SDS011;5722;42.620;23.374;2023-07-20T10:21:42;7.28;;;2.97;;
11334;SDS011;5722;42.620;23.374;2023-07-20T10:24:18;8.02;;;2.70;;
11334;SDS011;5722;42.620;23.374;2023-07-20T10:26:52;6.82;;;2.63;;
11334;SDS011;5722;42.620;23.374;2023-07-20T10:29:24;9.07;;;3.20;;
11334;SDS011;5722;42.620;23.374;2023-07-20T10:32:13;9.77;;;2.70;;
11334;SDS011;5722;42.620;23.374;2023-07-20T10:35:11;9.60;;;2.97;;
11334;SDS011;5722;42.620;23.374;2023-07-20T10:37:51;7.50;;;2.80;;
11334;SDS011;5722;42.620;23.374;2023-07-20T10:40:33;8.23;;;3.03;;
11334;SDS011;5722;42.620;23.374;2023-07-20T11:12:27;6.47;;;3.20;;
11334;SDS011;5722;42.620;23.374;2023-07-20T11:14:59;6.47;;;2.83;;
11334;SDS011;5722;42.620;23.374;2023-07-20T11:17:43;6.32;;;2.67;;
11334;SDS011;5722;42.620;23.374;2023-07-20T11:20:20;8.10;;;3.20;;
11334;SDS011;5722;42.620;23.374;2023-07-20T11:23:14;7.88;;;3.17;;
11334;SDS011;5722;42.620;23.374;2023-07-20T11:26:04;7.22;;;3.10;;
11334;SDS011;5722;42.620;23.374;2023-07-20T11:57:21;8.30;;;4.30;;
11334;SDS011;5722;42.620;23.374;2023-07-20T12:00:14;7.93;;;3.90;;
11334;SDS011;5722;42.620;23.374;2023-07-20T12:37:59;9.60;;;3.35;;
11334;SDS011;5722;42.620;23.374;2023-07-20T12:40:39;9.20;;;3.67;;
11334;SDS011;5722;42.620;23.374;2023-07-20T12:43:16;8.35;;;3.03;;
11334;SDS011;5722;42.620;23.374;2023-07-20T12:46:38;8.98;;;3.75;;
11334;SDS011;5722;42.620;23.374;2023-07-20T12:49:55;9.50;;;3.35;;
11334;SDS011;5722;42.620;23.374;2023-07-20T12:52:53;12.00;;;3.40;;
11334;SDS011;5722;42.620;23.374;2023-07-20T13:01:37;10.27;;;3.50;;
11334;SDS011;5722;42.620;23.374;2023-07-20T13:07:22;10.77;;;3.50;;
11334;SDS011;5722;42.620;23.374;2023-07-20T13:13:13;8.30;;;3.28;;
11334;SDS011;5722;42.620;23.374;2023-07-20T13:24:29;7.40;;;2.70;;
11334;SDS011;5722;42.620;23.374;2023-07-20T13:27:10;7.90;;;2.95;;
11334;SDS011;5722;42.620;23.374;2023-07-20T13:29:55;10.55;;;3.00;;
11334;SDS011;5722;42.620;23.374;2023-07-20T13:32:39;6.45;;;3.08;;
11334;SDS011;5722;42.620;23.374;2023-07-20T13:35:39;7.72;;;3.10;;
11334;SDS011;5722;42.620;23.374;2023-07-20T13:38:22;8.88;;;3.05;;
11334;SDS011;5722;42.620;23.374;2023-07-20T13:54:45;8.63;;;3.20;;
11334;SDS011;5722;42.620;23.374;2023-07-20T13:57:16;7.18;;;3.25;;
11334;SDS011;5722;42.620;23.374;2023-07-20T14:00:38;12.07;;;3.28;;
11334;SDS011;5722;42.620;23.374;2023-07-20T14:31:57;9.07;;;2.53;;
11334;SDS011;5722;42.620;23.374;2023-07-20T14:34:42;10.57;;;3.30;;
11334;SDS011;5722;42.620;23.374;2023-07-20T14:37:39;8.85;;;2.95;;
11334;SDS011;5722;42.620;23.374;2023-07-20T14:40:19;7.80;;;2.90;;
11334;SDS011;5722;42.620;23.374;2023-07-20T14:45:41;4.93;;;2.53;;
11334;SDS011;5722;42.620;23.374;2023-07-20T14:51:07;13.55;;;3.38;;
11334;SDS011;5722;42.620;23.374;2023-07-20T14:53:36;10.98;;;3.20;;
11334;SDS011;5722;42.620;23.374;2023-07-20T14:58:53;9.43;;;3.05;;
11334;SDS011;5722;42.620;23.374;2023-07-20T15:01:26;8.10;;;2.90;;
11334;SDS011;5722;42.620;23.374;2023-07-20T15:03:59;6.55;;;2.72;;
11334;SDS011;5722;42.620;23.374;2023-07-20T15:26:41;5.97;;;2.75;;
11334;SDS011;5722;42.620;23.374;2023-07-20T15:29:24;9.32;;;3.03;;
11334;SDS011;5722;42.620;23.374;2023-07-20T15:32:11;9.40;;;3.00;;
11334;SDS011;5722;42.620;23.374;2023-07-20T15:35:12;11.57;;;2.92;;
11334;SDS011;5722;42.620;23.374;2023-07-20T15:37:42;9.40;;;3.10;;
11334;SDS011;5722;42.620;23.374;2023-07-20T15:40:26;7.43;;;2.92;;
11334;SDS011;5722;42.620;23.374;2023-07-20T15:43:07;11.63;;;2.83;;
11334;SDS011;5722;42.620;23.374;2023-07-20T15:45:46;7.18;;;2.80;;
11334;SDS011;5722;42.620;23.374;2023-07-20T15:48:23;7.78;;;2.50;;
11334;SDS011;5722;42.620;23.374;2023-07-20T15:50:57;8.57;;;2.75;;
11334;SDS011;5722;42.620;23.374;2023-07-20T15:56:32;10.57;;;2.70;;
11334;SDS011;5722;42.620;23.374;2023-07-20T16:02:02;8.60;;;2.80;;
11334;SDS011;5722;42.620;23.374;2023-07-20T16:04:37;5.07;;;2.67;;
11334;SDS011;5722;42.620;23.374;2023-07-20T16:07:24;9.10;;;2.45;;
11334;SDS011;5722;42.620;23.374;2023-07-20T16:13:00;8.63;;;2.90;;
11334;SDS011;5722;42.620;23.374;2023-07-20T16:15:38;6.85;;;2.38;;
11334;SDS011;5722;42.620;23.374;2023-07-20T16:21:16;8.32;;;2.80;;
11334;SDS011;5722;42.620;23.374;2023-07-20T16:24:02;7.55;;;2.63;;
11334;SDS011;5722;42.620;23.374;2023-07-20T16:26:38;5.75;;;2.70;;
11334;SDS011;5722;42.620;23.374;2023-07-20T16:29:22;7.57;;;2.58;;
11334;SDS011;5722;42.620;23.374;2023-07-20T16:32:26;7.90;;;2.92;;
11334;SDS011;5722;42.620;23.374;2023-07-20T16:35:09;6.93;;;2.50;;
11334;SDS011;5722;42.620;23.374;2023-07-20T16:44:01;8.20;;;2.63;;
11334;SDS011;5722;42.620;23.374;2023-07-20T16:46:40;6.68;;;2.65;;
11334;SDS011;5722;42.620;23.374;2023-07-20T16:49:22;6.63;;;2.72;;
11334;SDS011;5722;42.620;23.374;2023-07-20T16:52:20;6.28;;;2.60;;
11334;SDS011;5722;42.620;23.374;2023-07-20T16:54:50;9.07;;;2.83;;
11334;SDS011;5722;42.620;23.374;2023-07-20T17:11:35;5.20;;;2.10;;
11334;SDS011;5722;42.620;23.374;2023-07-20T17:14:16;7.00;;;2.85;;
11334;SDS011;5722;42.620;23.374;2023-07-20T17:17:18;7.20;;;2.80;;
11334;SDS011;5722;42.620;23.374;2023-07-20T17:19:48;8.63;;;2.60;;
11334;SDS011;5722;42.620;23.374;2023-07-20T17:22:27;5.35;;;2.60;;
11334;SDS011;5722;42.620;23.374;2023-07-20T17:24:56;8.63;;;2.50;;
11334;SDS011;5722;42.620;23.374;2023-07-20T17:30:46;7.65;;;2.75;;
11334;SDS011;5722;42.620;23.374;2023-07-20T17:33:29;10.75;;;2.65;;
11334;SDS011;5722;42.620;23.374;2023-07-20T17:36:19;6.55;;;2.67;;
11334;SDS011;5722;42.620;23.374;2023-07-20T17:39:05;5.82;;;2.63;;
11334;SDS011;5722;42.620;23.374;2023-07-20T17:41:48;7.70;;;2.70;;
11334;SDS011;5722;42.620;23.374;2023-07-20T17:44:23;7.70;;;2.70;;
11334;SDS011;5722;42.620;23.374;2023-07-20T17:52:55;6.82;;;2.40;;
11334;SDS011;5722;42.620;23.374;2023-07-20T17:55:27;9.43;;;2.97;;
11334;SDS011;5722;42.620;23.374;2023-07-20T17:58:06;6.10;;;2.30;;
11334;SDS011;5722;42.620;23.374;2023-07-20T18:00:53;6.97;;;2.63;;
11334;SDS011;5722;42.620;23.374;2023-07-20T18:03:29;8.10;;;3.13;;
11334;SDS011;5722;42.620;23.374;2023-07-20T18:06:15;8.68;;;2.92;;
11334;SDS011;5722;42.620;23.374;2023-07-20T18:08:45;5.30;;;2.40;;
11334;SDS011;5722;42.620;23.374;2023-07-20T18:11:27;8.32;;;2.80;;
11334;SDS011;5722;42.620;23.374;2023-07-20T18:14:01;4.25;;;2.53;;
11334;SDS011;5722;42.620;23.374;2023-07-20T18:16:35;5.40;;;2.58;;
11334;SDS011;5722;42.620;23.374;2023-07-20T18:19:33;6.03;;;2.30;;
11334;SDS011;5722;42.620;23.374;2023-07-20T18:22:05;8.50;;;2.50;;
11334;SDS011;5722;42.620;23.374;2023-07-20T18:33:24;9.75;;;3.05;;
11334;SDS011;5722;42.620;23.374;2023-07-20T18:36:07;6.60;;;2.65;;
11334;SDS011;5722;42.620;23.374;2023-07-20T18:38:41;6.20;;;3.05;;
11334;SDS011;5722;42.620;23.374;2023-07-20T18:43:55;6.90;;;2.47;;
11334;SDS011;5722;42.620;23.374;2023-07-20T18:46:40;7.10;;;2.47;;
11334;SDS011;5722;42.620;23.374;2023-07-20T18:49:16;6.70;;;2.70;;
11334;SDS011;5722;42.620;23.374;2023-07-20T18:51:51;4.88;;;2.70;;
11334;SDS011;5722;42.620;23.374;2023-07-20T18:54:27;7.10;;;2.83;;
11334;SDS011;5722;42.620;23.374;2023-07-20T18:57:00;7.35;;;2.85;;
11334;SDS011;5722;42.620;23.374;2023-07-20T18:59:34;7.10;;;2.60;;
11334;SDS011;5722;42.620;23.374;2023-07-20T19:02:07;6.07;;;2.50;;
11334;SDS011;5722;42.620;23.374;2023-07-20T19:28:57;6.13;;;3.00;;
11334;SDS011;5722;42.620;23.374;2023-07-20T19:31:27;5.35;;;2.58;;
11334;SDS011;5722;42.620;23.374;2023-07-20T19:33:59;6.32;;;3.38;;
11334;SDS011;5722;42.620;23.374;2023-07-20T19:36:32;5.45;;;3.42;;
11334;SDS011;5722;42.620;23.374;2023-07-20T19:39:08;4.53;;;3.40;;
11334;SDS011;5722;42.620;23.374;2023-07-20T19:42:00;10.13;;;3.90;;
11334;SDS011;5722;42.620;23.374;2023-07-20T19:44:46;6.93;;;3.20;;
11334;SDS011;5722;42.620;23.374;2023-07-20T19:47:28;7.30;;;3.20;;
11334;SDS011;5722;42.620;23.374;2023-07-20T19:50:08;7.10;;;2.90;;
11334;SDS011;5722;42.620;23.374;2023-07-20T19:55:22;4.05;;;2.50;;
11334;SDS011;5722;42.620;23.374;2023-07-20T19:58:12;5.82;;;2.83;;
11334;SDS011;5722;42.620;23.374;2023-07-20T20:00:58;7.03;;;2.85;;
11334;SDS011;5722;42.620;23.374;2023-07-20T20:03:35;5.03;;;2.80;;
11334;SDS011;5722;42.620;23.374;2023-07-20T20:06:40;4.30;;;2.72;;
11334;SDS011;5722;42.620;23.374;2023-07-20T20:09:15;5.55;;;2.85;;
11334;SDS011;5722;42.620;23.374;2023-07-20T20:11:45;3.63;;;2.50;;
11334;SDS011;5722;42.620;23.374;2023-07-20T20:14:32;5.75;;;2.83;;
11334;SDS011;5722;42.620;23.374;2023-07-20T20:28:44;7.25;;;3.00;;
11334;SDS011;5722;42.620;23.374;2023-07-20T20:31:18;10.25;;;2.80;;
11334;SDS011;5722;42.620;23.374;2023-07-20T20:33:53;7.00;;;2.80;;
11334;SDS011;5722;42.620;23.374;2023-07-20T20:36:32;6.10;;;2.83;;
11334;SDS011;5722;42.620;23.374;2023-07-20T20:39:11;7.10;;;3.13;;
11334;SDS011;5722;42.620;23.374;2023-07-20T20:41:43;5.97;;;3.22;;
11334;SDS011;5722;42.620;23.374;2023-07-20T20:44:30;10.32;;;3.22;;
11334;SDS011;5722;42.620;23.374;2023-07-20T20:47:00;5.35;;;3.10;;
11334;SDS011;5722;42.620;23.374;2023-07-20T20:49:42;5.30;;;3.00;;
11334;SDS011;5722;42.620;23.374;2023-07-20T20:55:06;6.97;;;3.17;;
11334;SDS011;5722;42.620;23.374;2023-07-20T20:57:37;5.18;;;3.10;;
11334;SDS011;5722;42.620;23.374;2023-07-20T21:00:13;5.25;;;3.30;;
11334;SDS011;5722;42.620;23.374;2023-07-20T21:02:44;3.95;;;3.38;;
11334;SDS011;5722;42.620;23.374;2023-07-20T21:05:27;5.22;;;3.05;;
11334;SDS011;5722;42.620;23.374;2023-07-20T21:08:01;8.52;;;3.28;;
11334;SDS011;5722;42.620;23.374;2023-07-20T21:13:22;6.30;;;3.30;;
11334;SDS011;5722;42.620;23.374;2023-07-20T21:22:04;6.43;;;3.63;;
